Time;durP1;ratioP1;P1;durP2;ratioP2;P2;SDS_P1;SDS_P2;PMS_P1;PMS_P2;Temp;Humidity;BMP_temperature;BMP_pressure;BME280_temperature;BME280_humidity;BME280_pressure;Samples;Min_cycle;Max_cycle;Signal;HPM_P1;HPM_P2
2022/09/25 00:02:08;;;;;;;6.73;2.50;;;15.30;99.90;;;;;;5066602;28;20686;-35
2022/09/25 00:04:38;;;;;;;6.03;2.37;;;15.30;99.90;;;;;;5067597;28;20245;-35
2022/09/25 00:07:10;;;;;;;10.07;2.70;;;15.30;99.90;;;;;;5066500;28;20219;-35
2022/09/25 00:09:44;;;;;;;3.97;2.03;;;15.30;99.90;;;;;;5067970;28;20568;-35
2022/09/25 00:12:16;;;;;;;6.17;2.57;;;15.20;99.90;;;;;;5067920;28;20203;-35
2022/09/25 00:14:43;;;;;;;6.07;3.07;;;15.20;99.90;;;;;;5067309;28;20579;-35
2022/09/25 00:17:11;;;;;;;4.83;2.53;;;15.20;99.90;;;;;;5065449;28;20231;-35
2022/09/25 00:19:50;;;;;;;6.33;2.37;;;15.20;99.90;;;;;;5067346;28;20192;-35
2022/09/25 00:22:18;;;;;;;4.80;2.40;;;15.20;99.90;;;;;;5067387;28;20214;-35
2022/09/25 00:24:46;;;;;;;8.13;2.33;;;15.20;99.90;;;;;;5067489;28;20242;-35
2022/09/25 00:27:14;;;;;;;6.00;2.10;;;15.10;99.90;;;;;;5065327;28;20204;-35
2022/09/25 00:29:43;;;;;;;5.83;2.10;;;15.10;99.90;;;;;;5047557;28;20220;-35
2022/09/25 00:32:14;;;;;;;6.40;2.23;;;15.10;99.90;;;;;;5047715;28;20636;-35
2022/09/25 00:34:43;;;;;;;4.80;2.07;;;15.10;99.90;;;;;;5047296;28;20540;-35
2022/09/25 00:37:11;;;;;;;7.57;2.43;;;15.00;99.90;;;;;;5046781;28;20295;-35
2022/09/25 00:39:40;;;;;;;5.70;2.13;;;15.00;99.90;;;;;;5047209;28;20694;-35
2022/09/25 00:42:13;;;;;;;4.83;1.97;;;15.00;99.90;;;;;;5046752;28;20219;-35
2022/09/25 00:44:56;;;;;;;5.47;1.97;;;15.00;99.90;;;;;;5047155;28;20700;-35
2022/09/25 00:47:47;;;;;;;4.50;2.00;;;15.00;99.90;;;;;;5054179;28;21031;-35
2022/09/25 00:50:35;;;;;;;4.07;1.60;;;14.90;99.90;;;;;;5065588;28;20406;-35
2022/09/25 00:53:18;;;;;;;6.23;1.60;;;14.90;99.90;;;;;;5067304;28;20277;-35
2022/09/25 00:55:45;;;;;;;5.37;2.20;;;14.90;99.90;;;;;;5066866;28;20286;-35
2022/09/25 00:58:22;;;;;;;10.10;2.50;;;14.90;99.90;;;;;;5060208;28;20228;-35
2022/09/25 01:00:52;;;;;;;7.80;2.10;;;14.90;99.90;;;;;;5046337;28;20208;-35
2022/09/25 01:03:22;;;;;;;6.47;2.30;;;14.90;99.90;;;;;;5049748;28;20762;-35
2022/09/25 01:05:53;;;;;;;6.03;2.30;;;14.90;99.90;;;;;;5066112;28;20203;-35
2022/09/25 01:08:26;;;;;;;7.27;2.13;;;14.80;99.90;;;;;;5053972;28;20216;-35
2022/09/25 01:10:56;;;;;;;6.80;2.10;;;14.80;99.90;;;;;;5065680;28;20211;-35
2022/09/25 01:13:28;;;;;;;4.93;1.80;;;14.70;99.90;;;;;;5066453;28;20219;-35
2022/09/25 01:16:02;;;;;;;8.70;1.70;;;14.70;99.90;;;;;;5047267;28;20235;-35
2022/09/25 01:18:57;;;;;;;5.87;1.80;;;14.70;99.90;;;;;;5062781;28;20269;-35
2022/09/25 01:21:47;;;;;;;4.67;1.90;;;14.70;99.90;;;;;;5065777;28;20204;-35
2022/09/25 01:24:36;;;;;;;7.87;2.40;;;14.70;99.90;;;;;;5066218;28;20203;-35
2022/09/25 01:27:37;;;;;;;7.63;1.80;;;14.70;99.90;;;;;;5066205;28;20223;-35
2022/09/25 01:30:14;;;;;;;5.37;1.90;;;14.70;99.90;;;;;;5065611;28;20201;-35
2022/09/25 01:32:47;;;;;;;7.53;2.00;;;14.60;99.90;;;;;;5066131;28;20569;-35
2022/09/25 01:35:33;;;;;;;5.40;2.03;;;14.60;99.90;;;;;;5065450;28;20227;-35
2022/09/25 01:38:47;;;;;;;4.47;2.10;;;14.60;99.90;;;;;;5059425;28;20308;-35
2022/09/25 01:41:22;;;;;;;10.40;2.50;;;14.60;99.90;;;;;;5045753;28;20678;-35
2022/09/25 01:44:42;;;;;;;6.40;1.87;;;14.50;99.90;;;;;;5045974;28;20274;-35
2022/09/25 01:47:17;;;;;;;8.83;2.33;;;14.50;99.90;;;;;;5041236;28;20212;-35
2022/09/25 01:49:55;;;;;;;6.90;2.37;;;14.50;99.90;;;;;;5027626;28;20299;-35
2022/09/25 01:52:34;;;;;;;8.80;2.10;;;14.50;99.90;;;;;;5044667;28;20192;-35
2022/09/25 01:55:25;;;;;;;7.20;2.63;;;14.40;99.90;;;;;;5045647;28;20220;-35
2022/09/25 01:58:06;;;;;;;6.97;2.20;;;14.40;99.90;;;;;;5044190;28;20606;-36
2022/09/25 02:00:41;;;;;;;7.07;2.10;;;14.40;99.90;;;;;;5044558;28;20196;-35
2022/09/25 02:03:33;;;;;;;8.13;2.27;;;14.40;99.90;;;;;;5045958;28;20678;-35
2022/09/25 02:06:04;;;;;;;4.73;2.57;;;14.40;99.90;;;;;;5045697;28;20695;-35
2022/09/25 02:09:00;;;;;;;7.00;2.60;;;14.40;99.90;;;;;;5045739;28;20305;-35
2022/09/25 02:11:34;;;;;;;7.27;2.17;;;14.30;99.90;;;;;;5045460;28;20204;-35
2022/09/25 02:14:07;;;;;;;3.80;1.97;;;14.30;99.90;;;;;;5045409;28;20206;-35
2022/09/25 02:22:21;;;;;;;3.87;1.97;;;14.20;99.90;;;;;;5101444;28;20295;-35
2022/09/25 02:25:04;;;;;;;13.83;3.13;;;14.20;99.90;;;;;;5102480;28;20195;-35
2022/09/25 02:27:33;;;;;;;7.00;2.00;;;14.10;99.90;;;;;;5102168;28;20199;-35
2022/09/25 02:30:01;;;;;;;8.70;2.53;;;14.10;99.90;;;;;;5102734;28;20696;-35
2022/09/25 02:32:32;;;;;;;9.10;2.93;;;14.10;99.90;;;;;;5102078;28;20202;-36
2022/09/25 02:35:02;;;;;;;4.00;2.10;;;14.00;99.90;;;;;;5101777;28;20210;-35
2022/09/25 02:37:34;;;;;;;5.83;2.33;;;14.00;99.90;;;;;;5101529;28;20618;-35
2022/09/25 02:40:03;;;;;;;5.23;2.60;;;14.00;99.90;;;;;;5101469;28;20206;-35
2022/09/25 02:42:56;;;;;;;5.70;2.30;;;14.00;99.90;;;;;;5102451;28;20212;-35
2022/09/25 02:45:48;;;;;;;7.27;2.47;;;13.90;99.90;;;;;;5101190;28;20232;-35
2022/09/25 02:48:34;;;;;;;5.53;2.27;;;13.90;99.90;;;;;;5102685;28;20559;-38
2022/09/25 02:51:10;;;;;;;5.50;2.30;;;13.80;99.90;;;;;;5100675;28;20222;-35
2022/09/25 02:53:51;;;;;;;4.97;2.00;;;13.80;99.90;;;;;;5102213;28;20587;-35
2022/09/25 02:56:32;;;;;;;6.97;2.57;;;13.80;99.90;;;;;;5102435;28;20207;-35
2022/09/25 02:59:06;;;;;;;5.30;2.40;;;13.70;99.90;;;;;;5101622;28;20803;-35
2022/09/25 03:01:37;;;;;;;6.40;2.37;;;13.70;99.90;;;;;;5100830;28;20669;-35
2022/09/25 03:04:05;;;;;;;9.70;2.87;;;13.70;99.90;;;;;;5101695;28;20665;-35
2022/09/25 03:06:33;;;;;;;6.20;2.27;;;13.70;99.90;;;;;;5101037;28;20218;-35
2022/09/25 03:09:06;;;;;;;8.00;2.40;;;13.70;99.90;;;;;;5101916;28;20194;-35
2022/09/25 03:11:40;;;;;;;9.33;2.30;;;13.60;99.90;;;;;;5100589;28;20198;-35
2022/09/25 03:14:10;;;;;;;6.57;2.70;;;13.60;99.90;;;;;;5102036;28;20198;-35
2022/09/25 03:16:55;;;;;;;10.83;2.40;;;13.60;99.90;;;;;;5101825;28;20771;-35
2022/09/25 03:19:26;;;;;;;5.73;2.30;;;13.60;99.90;;;;;;5101428;28;20569;-35
2022/09/25 03:21:56;;;;;;;5.73;2.20;;;13.50;99.90;;;;;;5099814;28;20198;-35
2022/09/25 03:24:24;;;;;;;7.13;2.20;;;13.50;99.90;;;;;;5101667;28;20708;-35
2022/09/25 03:26:52;;;;;;;5.93;2.20;;;13.50;99.90;;;;;;5099618;28;20197;-35
2022/09/25 03:29:20;;;;;;;7.97;2.30;;;13.50;99.90;;;;;;5095340;28;20210;-35
2022/09/25 03:31:50;;;;;;;7.37;2.33;;;13.50;99.90;;;;;;5087782;28;20366;-35
2022/09/25 03:34:18;;;;;;;5.67;2.50;;;13.40;99.90;;;;;;5087143;28;20199;-34
2022/09/25 03:36:48;;;;;;;9.00;2.40;;;13.40;99.90;;;;;;5086151;28;20246;-35
2022/09/25 03:39:17;;;;;;;5.47;2.10;;;13.40;99.90;;;;;;5086952;28;20310;-35
2022/09/25 03:41:49;;;;;;;5.80;2.47;;;13.40;99.90;;;;;;5087796;28;20210;-35
2022/09/25 03:44:17;;;;;;;5.27;2.60;;;13.30;99.90;;;;;;5087730;28;20207;-35
2022/09/25 03:46:44;;;;;;;8.27;2.53;;;13.30;99.90;;;;;;5087340;28;20572;-35
2022/09/25 03:49:13;;;;;;;5.23;2.30;;;13.30;99.90;;;;;;5087568;28;20209;-35
2022/09/25 03:51:44;;;;;;;6.27;2.67;;;13.30;99.90;;;;;;5087442;28;20716;-35
2022/09/25 03:54:12;;;;;;;6.53;2.40;;;13.20;99.90;;;;;;5087340;28;20598;-35
2022/09/25 03:56:39;;;;;;;7.03;2.47;;;13.20;99.90;;;;;;5087503;28;20730;-34
2022/09/25 03:59:09;;;;;;;7.23;2.20;;;13.20;99.90;;;;;;5086740;28;20233;-35
2022/09/25 04:01:39;;;;;;;4.80;2.43;;;13.20;99.90;;;;;;5087164;28;20767;-35
2022/09/25 04:04:08;;;;;;;7.37;2.90;;;13.10;99.90;;;;;;5087078;28;20786;-35
2022/09/25 04:06:39;;;;;;;4.87;2.60;;;13.10;99.90;;;;;;5087024;28;20252;-35
2022/09/25 04:09:08;;;;;;;10.33;2.90;;;13.10;99.90;;;;;;5087193;28;20553;-35
2022/09/25 04:11:36;;;;;;;9.13;3.27;;;13.10;99.90;;;;;;5087681;28;20203;-35
2022/09/25 04:14:07;;;;;;;7.27;2.90;;;13.00;99.90;;;;;;5086992;28;20306;-35
2022/09/25 04:16:36;;;;;;;6.00;3.00;;;13.00;99.90;;;;;;5087561;28;21015;-35
2022/09/25 04:19:03;;;;;;;6.23;2.80;;;13.00;99.90;;;;;;5086049;28;20308;-35
2022/09/25 04:21:30;;;;;;;6.53;2.73;;;13.00;99.90;;;;;;5086657;28;20211;-35
2022/09/25 04:26:43;;;;;;;5.17;2.50;;;13.00;99.90;;;;;;5087026;28;20203;-36
2022/09/25 04:29:10;;;;;;;7.43;3.10;;;12.90;99.90;;;;;;5086178;28;20210;-35
2022/09/25 04:31:40;;;;;;;6.20;3.10;;;12.90;99.90;;;;;;5086196;28;20280;-35
2022/09/25 04:34:07;;;;;;;7.53;2.90;;;12.90;99.90;;;;;;5085942;28;20203;-33
2022/09/25 04:36:37;;;;;;;7.10;3.10;;;12.90;99.90;;;;;;5085912;28;20210;-35
2022/09/25 04:39:04;;;;;;;9.43;3.60;;;12.80;99.90;;;;;;5086357;28;20604;-35
2022/09/25 04:41:33;;;;;;;6.47;3.17;;;12.80;99.90;;;;;;5084526;28;20730;-35
2022/09/25 04:44:04;;;;;;;9.13;3.00;;;12.80;99.90;;;;;;5086239;28;20261;-35
2022/09/25 04:46:33;;;;;;;14.70;3.40;;;12.80;99.90;;;;;;5086325;28;20195;-35
2022/09/25 04:49:07;;;;;;;5.53;3.10;;;12.80;99.90;;;;;;5085890;28;20203;-35
2022/09/25 04:51:37;;;;;;;7.03;2.87;;;12.80;99.90;;;;;;5085798;28;20244;-35
2022/09/25 04:54:06;;;;;;;8.27;3.40;;;12.70;99.90;;;;;;5084884;28;20218;-35
2022/09/25 04:56:34;;;;;;;6.43;3.33;;;12.70;99.90;;;;;;5085666;28;20209;-35
2022/09/25 04:59:03;;;;;;;4.50;3.30;;;12.70;99.90;;;;;;5079965;28;20851;-35
2022/09/25 05:01:33;;;;;;;5.97;3.40;;;12.70;99.90;;;;;;5079929;28;20203;-35
2022/09/25 05:04:03;;;;;;;8.40;3.90;;;12.60;99.90;;;;;;5082326;28;20219;-35
2022/09/25 05:06:34;;;;;;;5.07;3.40;;;12.60;99.90;;;;;;5079674;28;20221;-35
2022/09/25 05:09:02;;;;;;;4.50;3.37;;;12.60;99.90;;;;;;5080722;28;20657;-35
2022/09/25 05:11:29;;;;;;;6.53;3.53;;;12.60;99.90;;;;;;5081920;28;20222;-35
2022/09/25 05:14:00;;;;;;;6.67;3.40;;;12.60;99.90;;;;;;5081982;28;20245;-35
2022/09/25 05:16:29;;;;;;;7.40;3.93;;;12.50;99.90;;;;;;5074465;28;20204;-35
2022/09/25 05:18:59;;;;;;;9.30;3.30;;;12.50;99.90;;;;;;5082774;28;20239;-35
2022/09/25 05:21:26;;;;;;;8.40;3.27;;;12.50;99.90;;;;;;5085291;28;20214;-35
2022/09/25 05:23:55;;;;;;;6.13;3.50;;;12.50;99.90;;;;;;5086256;28;20210;-35
2022/09/25 05:26:28;;;;;;;5.10;3.40;;;12.40;99.90;;;;;;5084113;28;20206;-35
2022/09/25 05:28:57;;;;;;;5.33;3.70;;;12.50;99.90;;;;;;5084744;28;20612;-35
2022/09/25 05:31:28;;;;;;;7.60;4.03;;;12.40;99.90;;;;;;5082352;28;20645;-35
2022/09/25 05:33:57;;;;;;;5.10;3.70;;;12.40;99.90;;;;;;5069439;28;20203;-35
2022/09/25 05:36:27;;;;;;;7.27;3.70;;;12.40;99.90;;;;;;5079094;28;20626;-36
2022/09/25 05:38:59;;;;;;;6.17;3.80;;;12.40;99.90;;;;;;5065047;28;20509;-35
2022/09/25 05:41:26;;;;;;;8.63;3.83;;;12.30;99.90;;;;;;5063816;28;20207;-35
2022/09/25 05:43:56;;;;;;;5.63;3.83;;;12.30;99.90;;;;;;5063796;28;20200;-35
2022/09/25 05:46:23;;;;;;;7.13;4.63;;;12.30;99.90;;;;;;5077581;28;20205;-35
2022/09/25 05:48:52;;;;;;;9.97;4.80;;;12.30;99.90;;;;;;5076338;28;20218;-35
2022/09/25 05:51:27;;;;;;;8.33;4.40;;;12.20;99.90;;;;;;5082546;28;20213;-35
2022/09/25 05:53:56;;;;;;;8.27;4.40;;;12.20;99.90;;;;;;5102594;28;20475;-35
2022/09/25 05:56:26;;;;;;;5.90;4.27;;;12.20;99.90;;;;;;5089567;28;20202;-35
2022/09/25 05:58:54;;;;;;;8.00;4.07;;;12.20;99.90;;;;;;5075903;28;20214;-35
2022/09/25 06:01:22;;;;;;;7.07;4.63;;;12.20;99.90;;;;;;5082070;28;20198;-35
2022/09/25 06:03:54;;;;;;;4.30;3.90;;;12.20;99.90;;;;;;5084893;28;20202;-35
2022/09/25 06:06:21;;;;;;;5.50;4.27;;;12.20;99.90;;;;;;5084856;28;20221;-35
2022/09/25 06:08:55;;;;;;;6.73;4.27;;;12.20;99.90;;;;;;5083630;28;20248;-35
2022/09/25 06:11:25;;;;;;;3.97;3.57;;;12.20;99.90;;;;;;5084739;28;20750;-35
2022/09/25 06:13:56;;;;;;;8.03;3.90;;;12.10;99.90;;;;;;5084033;28;20215;-35
2022/09/25 06:16:28;;;;;;;4.93;3.70;;;12.10;99.90;;;;;;5082918;28;20306;-35
2022/09/25 06:19:02;;;;;;;5.83;3.90;;;12.00;99.90;;;;;;5077427;28;20261;-34
2022/09/25 06:21:31;;;;;;;7.63;4.00;;;12.00;99.90;;;;;;5084290;28;20195;-35
2022/09/25 06:24:01;;;;;;;5.93;4.07;;;12.00;99.90;;;;;;5083038;28;20237;-35
2022/09/25 06:26:29;;;;;;;6.87;4.13;;;12.00;99.90;;;;;;5084445;28;20632;-35
2022/09/25 06:28:58;;;;;;;7.00;3.97;;;12.00;99.90;;;;;;5082900;28;20209;-35
2022/09/25 06:31:34;;;;;;;5.20;3.40;;;12.00;99.90;;;;;;5085050;28;20244;-35
2022/09/25 06:34:04;;;;;;;7.03;3.70;;;11.90;99.90;;;;;;5083968;28;20739;-35
2022/09/25 06:36:32;;;;;;;6.73;3.70;;;11.90;99.90;;;;;;5054192;28;20195;-35
2022/09/25 06:38:59;;;;;;;6.57;3.93;;;11.90;99.90;;;;;;5078770;28;20220;-35
2022/09/25 06:41:26;;;;;;;6.00;3.70;;;11.90;99.90;;;;;;5083377;28;20757;-35
2022/09/25 06:43:54;;;;;;;8.10;4.03;;;11.90;99.90;;;;;;5085651;28;20195;-35
2022/09/25 06:46:21;;;;;;;7.63;4.03;;;11.90;99.90;;;;;;5085022;28;20214;-34
2022/09/25 06:48:53;;;;;;;6.10;4.10;;;11.90;99.90;;;;;;5082897;28;20234;-35
2022/09/25 06:51:31;;;;;;;6.30;4.50;;;11.90;99.90;;;;;;5083098;28;20210;-34
2022/09/25 06:53:58;;;;;;;5.67;3.77;;;11.90;99.90;;;;;;5079150;28;20404;-35
2022/09/25 06:56:28;;;;;;;4.57;3.97;;;11.90;99.90;;;;;;5083514;28;20640;-35
2022/09/25 06:58:55;;;;;;;6.10;3.90;;;12.00;99.90;;;;;;5080289;28;20235;-34
2022/09/25 07:01:24;;;;;;;5.43;3.70;;;12.00;99.90;;;;;;5082299;28;20199;-35
2022/09/25 07:03:52;;;;;;;7.10;4.07;;;12.00;99.90;;;;;;5081900;28;20202;-35
2022/09/25 07:06:26;;;;;;;8.90;5.03;;;12.00;99.90;;;;;;5087594;28;20206;-34
2022/09/25 07:08:58;;;;;;;6.07;3.87;;;12.10;99.90;;;;;;5084387;28;20220;-34
2022/09/25 07:11:30;;;;;;;10.03;3.87;;;12.10;99.90;;;;;;5076697;28;20222;-34
2022/09/25 07:14:02;;;;;;;7.47;3.73;;;12.20;99.90;;;;;;5085071;28;20248;-35
2022/09/25 07:16:33;;;;;;;6.13;3.47;;;12.20;99.90;;;;;;5095029;28;20219;-34
2022/09/25 07:19:02;;;;;;;5.07;3.50;;;12.30;99.90;;;;;;5085636;28;20641;-35
2022/09/25 07:21:31;;;;;;;7.87;3.80;;;12.30;99.90;;;;;;5087572;28;20207;-35
2022/09/25 07:23:58;;;;;;;5.50;3.37;;;12.40;99.90;;;;;;5089923;28;20222;-34
2022/09/25 07:26:28;;;;;;;10.37;4.13;;;12.50;99.90;;;;;;5085288;28;20227;-34
2022/09/25 07:29:05;;;;;;;5.40;3.63;;;12.50;99.90;;;;;;5097937;27;20676;-35
2022/09/25 07:31:33;;;;;;;4.60;3.57;;;12.60;99.90;;;;;;5093814;28;20212;-35
2022/09/25 07:34:01;;;;;;;4.87;3.60;;;12.60;99.90;;;;;;5082858;28;20239;-34
2022/09/25 07:36:31;;;;;;;7.87;3.93;;;12.70;99.90;;;;;;5066172;28;22037;-35
2022/09/25 07:39:01;;;;;;;6.33;3.37;;;12.70;99.90;;;;;;5098845;28;20885;-35
2022/09/25 07:41:36;;;;;;;7.27;3.50;;;12.80;99.90;;;;;;5070765;28;20206;-35
2022/09/25 07:44:05;;;;;;;6.03;3.07;;;12.90;99.90;;;;;;5075909;28;21015;-35
2022/09/25 07:46:58;;;;;;;7.90;3.73;;;12.90;99.90;;;;;;5082576;28;20621;-34
2022/09/25 07:49:25;;;;;;;3.57;3.10;;;13.00;99.90;;;;;;5085907;28;20203;-35
2022/09/25 07:51:52;;;;;;;4.30;3.17;;;13.00;99.90;;;;;;5081767;28;20221;-35
2022/09/25 07:54:24;;;;;;;7.33;3.67;;;13.10;99.90;;;;;;5088718;28;20230;-35
2022/09/25 07:56:53;;;;;;;6.37;3.13;;;13.10;99.90;;;;;;5084595;28;20199;-35
2022/09/25 07:59:21;;;;;;;5.13;3.27;;;13.20;99.90;;;;;;5084464;28;20242;-34
2022/09/25 08:01:50;;;;;;;7.50;3.37;;;13.20;99.90;;;;;;5074559;28;20307;-35
2022/09/25 08:04:20;;;;;;;8.17;3.77;;;13.30;99.90;;;;;;5076132;28;20195;-34
2022/09/25 08:06:47;;;;;;;6.90;3.07;;;13.30;99.90;;;;;;5086650;28;20215;-34
2022/09/25 08:09:18;;;;;;;5.70;3.50;;;13.30;99.90;;;;;;5086729;28;20637;-35
2022/09/25 08:11:46;;;;;;;6.43;3.43;;;13.40;99.90;;;;;;5082065;28;20203;-35
2022/09/25 08:14:17;;;;;;;7.23;3.63;;;13.50;99.90;;;;;;5072587;28;20203;-35
2022/09/25 08:16:54;;;;;;;5.93;3.00;;;13.50;99.90;;;;;;5083926;28;20583;-35
2022/09/25 08:19:26;;;;;;;4.60;2.80;;;13.50;99.90;;;;;;5083146;28;20230;-35
2022/09/25 08:21:53;;;;;;;4.87;3.03;;;13.60;99.90;;;;;;5078426;28;20203;-35
2022/09/25 08:24:27;;;;;;;5.93;2.97;;;13.60;99.90;;;;;;5080142;28;20304;-35
2022/09/25 08:26:59;;;;;;;7.90;3.00;;;13.70;99.90;;;;;;5075912;28;20855;-35
2022/09/25 08:29:30;;;;;;;5.37;2.57;;;13.70;99.90;;;;;;5082844;28;20290;-35
2022/09/25 08:32:00;;;;;;;6.43;2.80;;;13.80;99.90;;;;;;5079915;28;20581;-34
2022/09/25 08:34:27;;;;;;;6.40;3.43;;;13.90;99.90;;;;;;5084417;28;20711;-35
2022/09/25 08:37:10;;;;;;;5.03;2.83;;;13.90;99.90;;;;;;5089961;28;20377;-35
2022/09/25 08:39:41;;;;;;;6.17;2.77;;;13.90;99.90;;;;;;5082190;28;20624;-36
2022/09/25 08:42:18;;;;;;;5.80;2.10;;;14.00;99.90;;;;;;5081027;28;20864;-35
2022/09/25 08:49:00;;;;;;;5.43;2.60;;;14.10;99.90;;;;;;5087192;28;20210;-35
2022/09/25 08:50:37;;;;;;;6.07;2.40;;;14.20;99.90;;;;;;5077088;28;20264;-36
2022/09/25 08:53:22;;;;;;;4.50;2.17;;;14.20;99.90;;;;;;5075276;28;20199;-36
2022/09/25 08:58:44;;;;;;;4.90;2.43;;;14.30;99.90;;;;;;5078952;28;20214;-36
2022/09/25 09:01:27;;;;;;;5.43;2.73;;;14.30;99.90;;;;;;5082671;28;20198;-35
2022/09/25 09:04:05;;;;;;;6.50;2.87;;;14.40;99.90;;;;;;5085401;28;20314;-36
2022/09/25 09:06:37;;;;;;;4.70;2.30;;;14.40;99.90;;;;;;5083613;28;20203;-36
2022/09/25 09:09:13;;;;;;;9.30;2.67;;;14.50;99.90;;;;;;5084491;28;20290;-36
2022/09/25 09:11:51;;;;;;;5.43;1.90;;;14.50;99.90;;;;;;5100635;28;20206;-36
2022/09/25 09:14:21;;;;;;;7.00;2.43;;;14.50;99.90;;;;;;5085176;28;20252;-36
2022/09/25 09:17:16;;;;;;;5.43;1.83;;;14.60;99.90;;;;;;5083601;28;20290;-36
2022/09/25 09:19:50;;;;;;;5.07;2.27;;;14.60;99.90;;;;;;5084605;28;20227;-35
2022/09/25 09:22:34;;;;;;;3.57;1.70;;;14.70;99.90;;;;;;5084072;28;20203;-35
2022/09/25 09:25:06;;;;;;;3.13;1.83;;;14.80;99.90;;;;;;5084794;28;20210;-35
2022/09/25 09:27:46;;;;;;;6.87;1.80;;;14.80;99.90;;;;;;5096330;28;20207;-35
2022/09/25 09:31:00;;;;;;;4.90;1.90;;;14.90;99.90;;;;;;5081447;28;20217;-35
2022/09/25 09:34:00;;;;;;;6.13;2.00;;;14.90;99.90;;;;;;5040028;28;20204;-35
2022/09/25 09:36:52;;;;;;;2.83;1.40;;;14.90;99.90;;;;;;5041140;28;20343;-35
2022/09/25 09:39:22;;;;;;;5.30;1.40;;;15.00;99.90;;;;;;5073601;28;20236;-35
2022/09/25 09:42:31;;;;;;;2.33;1.10;;;15.10;99.90;;;;;;5085225;28;20199;-36
2022/09/25 09:45:00;;;;;;;6.27;1.70;;;15.20;99.90;;;;;;5038158;28;20781;-36
2022/09/25 09:47:56;;;;;;;7.50;1.47;;;15.20;99.90;;;;;;5076732;28;20744;-35
2022/09/25 09:50:27;;;;;;;4.10;1.27;;;15.20;99.90;;;;;;5081047;28;20221;-35
2022/09/25 09:53:12;;;;;;;3.40;0.90;;;15.20;99.90;;;;;;5075531;28;20740;-35
2022/09/25 09:55:45;;;;;;;3.10;1.07;;;15.30;99.90;;;;;;5084734;28;20210;-35
2022/09/25 09:58:49;;;;;;;2.90;0.90;;;15.30;99.90;;;;;;5081505;28;20218;-35
2022/09/25 10:01:23;;;;;;;5.07;1.00;;;15.30;99.90;;;;;;5089488;28;20294;-35
2022/09/25 10:04:18;;;;;;;3.00;1.03;;;15.30;99.90;;;;;;5092849;28;20210;-35
2022/09/25 10:06:52;;;;;;;2.73;0.83;;;15.40;99.90;;;;;;5082162;28;20271;-35
2022/09/25 10:09:24;;;;;;;4.93;0.80;;;15.40;99.90;;;;;;5072388;28;20682;-35
2022/09/25 10:12:06;;;;;;;4.67;1.10;;;15.50;99.90;;;;;;5071534;28;20207;-35
2022/09/25 10:14:39;;;;;;;2.50;0.87;;;15.50;99.90;;;;;;5078564;28;20203;-35
2022/09/25 10:17:10;;;;;;;4.07;0.80;;;15.50;99.90;;;;;;5078943;28;20265;-35
2022/09/25 10:19:47;;;;;;;3.03;0.70;;;15.50;99.90;;;;;;5077208;28;20274;-35
2022/09/25 10:22:19;;;;;;;4.33;1.00;;;15.40;99.90;;;;;;5076620;28;20222;-37
2022/09/25 10:24:50;;;;;;;2.47;0.90;;;15.40;99.90;;;;;;5094661;28;20199;-35
2022/09/25 10:27:25;;;;;;;3.20;0.97;;;15.60;99.90;;;;;;5077120;28;20285;-35
2022/09/25 10:30:09;;;;;;;2.37;0.90;;;15.60;99.90;;;;;;5076354;28;20493;-35
2022/09/25 10:33:08;;;;;;;3.13;0.70;;;15.70;99.90;;;;;;5079631;28;20661;-35
2022/09/25 10:35:38;;;;;;;3.30;0.90;;;15.80;99.90;;;;;;5077747;28;20220;-35
2022/09/25 10:38:31;;;;;;;2.40;0.60;;;15.80;99.90;;;;;;5090881;28;20590;-35
2022/09/25 10:41:03;;;;;;;1.67;0.50;;;15.90;99.90;;;;;;5091416;28;20250;-35
2022/09/25 10:43:33;;;;;;;2.53;0.70;;;16.00;99.90;;;;;;5088323;28;20199;-35
2022/09/25 10:46:06;;;;;;;2.33;1.10;;;16.00;99.90;;;;;;5085355;28;20210;-36
2022/09/25 10:51:23;;;;;;;1.83;0.87;;;16.10;99.90;;;;;;5085488;28;20234;-35
2022/09/25 10:54:10;;;;;;;4.23;1.10;;;16.20;99.90;;;;;;5076559;28;20203;-35
2022/09/25 10:56:38;;;;;;;3.30;0.53;;;16.20;99.90;;;;;;5073589;28;20211;-36
2022/09/25 10:59:18;;;;;;;2.70;0.70;;;16.20;99.90;;;;;;5110836;27;20474;-36
2022/09/25 11:01:49;;;;;;;2.80;0.70;;;16.20;99.90;;;;;;5084770;28;20224;-35
2022/09/25 11:04:20;;;;;;;1.87;0.60;;;16.20;99.90;;;;;;5076939;28;20195;-35
2022/09/25 11:06:53;;;;;;;1.70;0.60;;;16.30;99.90;;;;;;5085895;28;20222;-35
2022/09/25 11:09:28;;;;;;;3.70;0.77;;;16.30;99.90;;;;;;5095700;28;20194;-35
2022/09/25 11:12:22;;;;;;;2.07;0.77;;;16.50;99.90;;;;;;5091393;28;20262;-36
2022/09/25 11:15:01;;;;;;;2.23;0.73;;;16.50;99.90;;;;;;5104714;28;20309;-35
2022/09/25 11:17:41;;;;;;;4.20;0.80;;;16.50;99.90;;;;;;5083669;28;20266;-35
2022/09/25 11:20:29;;;;;;;1.67;0.50;;;16.50;99.90;;;;;;5081400;28;20317;-35
2022/09/25 11:23:03;;;;;;;2.57;0.63;;;16.60;99.90;;;;;;5085379;28;20336;-35
2022/09/25 11:25:46;;;;;;;3.60;0.70;;;16.60;99.90;;;;;;5085537;28;20198;-35
2022/09/25 11:28:26;;;;;;;3.63;0.70;;;16.70;99.90;;;;;;5076492;28;20256;-35
2022/09/25 11:31:04;;;;;;;1.53;0.70;;;16.70;99.90;;;;;;5090209;28;20225;-35
2022/09/25 11:33:41;;;;;;;3.20;0.50;;;16.70;99.90;;;;;;5086707;28;20211;-35
2022/09/25 11:36:20;;;;;;;1.80;0.50;;;16.70;99.90;;;;;;5082451;28;20202;-35
2022/09/25 11:41:56;;;;;;;2.17;0.80;;;16.80;99.90;;;;;;5091069;28;20214;-35
2022/09/25 11:44:34;;;;;;;1.50;0.50;;;16.90;99.90;;;;;;5084344;28;20554;-35
2022/09/25 11:47:39;;;;;;;1.67;0.60;;;16.90;99.90;;;;;;5087493;28;20603;-35
2022/09/25 11:50:17;;;;;;;2.63;0.83;;;17.00;99.90;;;;;;5097363;27;20210;-35
2022/09/25 11:53:14;;;;;;;2.03;0.70;;;17.00;99.90;;;;;;5098465;28;20325;-36
2022/09/25 11:56:05;;;;;;;2.57;0.90;;;17.00;99.90;;;;;;5079694;28;20217;-35
2022/09/25 11:58:49;;;;;;;2.63;0.80;;;17.10;99.90;;;;;;5085302;28;20313;-35
2022/09/25 12:01:25;;;;;;;1.00;0.43;;;17.10;99.90;;;;;;5080745;28;20218;-35
2022/09/25 12:04:21;;;;;;;4.77;0.80;;;17.20;99.90;;;;;;5086040;28;20337;-35
2022/09/25 12:06:54;;;;;;;4.20;0.80;;;17.30;99.90;;;;;;5102679;27;20428;-35
2022/09/25 12:09:43;;;;;;;2.63;0.90;;;17.30;99.90;;;;;;5098351;28;20590;-35
2022/09/25 12:12:53;;;;;;;2.00;1.10;;;17.30;99.90;;;;;;5092995;28;20199;-35
2022/09/25 12:15:35;;;;;;;1.97;0.60;;;17.30;99.90;;;;;;5101579;27;20210;-35
2022/09/25 12:18:31;;;;;;;0.93;0.60;;;17.40;99.90;;;;;;5065600;28;20239;-35
2022/09/25 12:21:10;;;;;;;3.57;0.83;;;17.40;99.90;;;;;;5084908;28;20258;-35
2022/09/25 12:23:51;;;;;;;2.07;0.70;;;17.40;99.90;;;;;;5085937;28;20230;-35
2022/09/25 12:26:29;;;;;;;2.07;0.73;;;17.50;99.90;;;;;;5085697;28;20213;-35
2022/09/25 12:29:19;;;;;;;3.40;0.70;;;17.50;99.90;;;;;;5100462;28;20202;-35
2022/09/25 12:32:14;;;;;;;1.00;0.60;;;17.50;99.90;;;;;;5106085;28;20208;-35
2022/09/25 12:35:13;;;;;;;2.50;0.90;;;17.50;99.90;;;;;;5084191;28;20229;-36
2022/09/25 12:37:56;;;;;;;1.73;0.70;;;17.50;99.90;;;;;;5065202;28;20227;-35
2022/09/25 12:40:42;;;;;;;2.17;0.53;;;17.60;99.90;;;;;;5071192;28;20218;-35
2022/09/25 12:43:29;;;;;;;1.67;0.70;;;17.60;99.90;;;;;;5084562;28;20302;-35
2022/09/25 12:46:01;;;;;;;1.27;0.73;;;17.70;99.90;;;;;;5083258;28;20204;-35
2022/09/25 12:48:44;;;;;;;4.23;0.70;;;17.70;99.90;;;;;;5076549;28;20198;-35
2022/09/25 12:51:33;;;;;;;1.40;0.50;;;17.80;99.90;;;;;;5074989;28;20238;-35
2022/09/25 12:54:16;;;;;;;1.53;0.63;;;17.80;99.90;;;;;;5092968;28;20633;-35
2022/09/25 12:56:57;;;;;;;2.07;0.60;;;17.80;99.90;;;;;;5078649;28;20665;-35
2022/09/25 12:59:50;;;;;;;5.40;0.73;;;17.90;99.90;;;;;;5085099;28;20212;-35
2022/09/25 13:02:36;;;;;;;1.93;0.43;;;17.90;99.90;;;;;;5079383;28;20207;-36
2022/09/25 13:05:24;;;;;;;1.80;0.60;;;17.90;99.90;;;;;;5086983;28;20201;-35
2022/09/25 13:08:19;;;;;;;2.73;0.83;;;17.90;99.90;;;;;;5079018;28;20537;-35
2022/09/25 13:11:02;;;;;;;0.87;0.40;;;17.90;99.90;;;;;;5071394;28;20198;-35
2022/09/25 13:13:47;;;;;;;2.47;0.50;;;17.90;99.90;;;;;;5084155;28;20248;-35
2022/09/25 13:16:16;;;;;;;1.70;0.60;;;17.90;99.90;;;;;;5077674;28;20568;-35
2022/09/25 13:18:48;;;;;;;2.17;0.53;;;17.90;99.90;;;;;;5080854;28;20253;-36
2022/09/25 13:21:27;;;;;;;1.07;0.50;;;17.90;99.90;;;;;;5083262;28;20325;-36
2022/09/25 13:23:56;;;;;;;1.50;0.50;;;17.90;99.90;;;;;;5083239;28;20562;-36
2022/09/25 13:26:25;;;;;;;3.40;0.80;;;17.90;99.90;;;;;;5066330;28;20633;-35
2022/09/25 13:29:04;;;;;;;2.40;0.70;;;17.90;99.90;;;;;;5081842;28;20333;-36
2022/09/25 13:31:33;;;;;;;4.77;0.97;;;18.00;99.90;;;;;;5083988;28;20677;-35
2022/09/25 13:34:11;;;;;;;3.80;0.90;;;18.00;99.90;;;;;;5068887;28;20203;-36
2022/09/25 13:36:46;;;;;;;3.13;1.07;;;18.10;99.90;;;;;;5081994;28;20207;-35
2022/09/25 13:42:20;;;;;;;4.50;1.13;;;18.20;99.90;;;;;;5085515;28;20227;-36
2022/09/25 13:45:06;;;;;;;2.87;0.97;;;18.20;99.90;;;;;;5071963;28;20195;-36
2022/09/25 13:47:37;;;;;;;2.73;1.20;;;18.20;99.90;;;;;;5090185;28;20198;-35
2022/09/25 13:50:10;;;;;;;1.83;0.83;;;18.20;99.90;;;;;;5090078;28;20708;-35
2022/09/25 13:52:46;;;;;;;2.83;0.90;;;18.20;99.90;;;;;;5084846;28;20705;-36